createdAt,value
2019-05-16T00:02:34.340Z,0.83
2019-05-16T00:06:38.876Z,0.77
2019-05-16T00:10:40.467Z,0.90
2019-05-16T00:14:42.908Z,1.10
2019-05-16T00:18:45.042Z,0.80
2019-05-16T00:22:48.661Z,0.93
2019-05-16T00:26:50.960Z,1.20
2019-05-16T00:30:52.951Z,0.73
2019-05-16T00:34:55.267Z,1.17
2019-05-16T00:38:57.863Z,0.80
2019-05-16T00:43:00.396Z,0.90
2019-05-16T00:47:02.502Z,0.80
2019-05-16T00:51:07.829Z,1.10
2019-05-16T00:55:09.846Z,1.07
2019-05-16T00:59:12.346Z,1.00
2019-05-16T01:03:14.419Z,0.90
2019-05-16T01:07:18.657Z,0.90
2019-05-16T01:11:20.556Z,1.10
2019-05-16T01:15:22.734Z,0.80
2019-05-16T01:19:24.855Z,0.90
2019-05-16T01:23:28.258Z,0.90
2019-05-16T01:27:30.545Z,0.90
2019-05-16T01:31:32.677Z,0.83
2019-05-16T01:35:34.904Z,0.77
2019-05-16T01:39:38.171Z,1.03
2019-05-16T01:43:40.376Z,1.10
2019-05-16T01:47:45.270Z,0.90
2019-05-16T01:51:48.442Z,1.23
2019-05-16T01:55:50.739Z,1.10
2019-05-16T01:59:52.798Z,1.67
2019-05-16T02:03:54.890Z,1.10
2019-05-16T02:07:58.658Z,1.30
2019-05-16T02:12:00.898Z,1.20
2019-05-16T02:16:03.042Z,1.27
2019-05-16T02:20:05.594Z,1.40
2019-05-16T02:24:08.918Z,1.40
2019-05-16T02:28:11.132Z,1.97
2019-05-16T02:32:13.191Z,1.37
2019-05-16T02:36:15.214Z,1.70
2019-05-16T02:40:22.308Z,2.43
2019-05-16T02:44:25.027Z,1.53
2019-05-16T02:48:31.845Z,2.07
2019-05-16T02:52:31.993Z,1.57
2019-05-16T02:56:34.163Z,1.20
2019-05-16T03:00:42.075Z,1.17
2019-05-16T03:04:44.332Z,1.00
2019-05-16T03:08:50.691Z,1.30
2019-05-16T03:12:52.874Z,1.50
2019-05-16T03:17:00.855Z,1.20
2019-05-16T03:21:02.469Z,1.23
2019-05-16T03:25:04.629Z,1.47
2019-05-16T03:29:07.221Z,1.23
2019-05-16T03:33:14.251Z,1.20
2019-05-16T03:37:14.501Z,1.50
2019-05-16T03:41:16.937Z,1.47
2019-05-16T03:45:21.254Z,1.30
2019-05-16T03:49:23.005Z,1.47
2019-05-16T03:53:25.178Z,1.13
2019-05-16T03:57:30.446Z,1.50
2019-05-16T04:01:31.554Z,1.40
2019-05-16T04:05:33.763Z,1.53
2019-05-16T04:09:35.990Z,1.60
2019-05-16T04:13:41.117Z,1.10
2019-05-16T04:17:41.888Z,1.47
2019-05-16T04:21:43.925Z,1.47
2019-05-16T04:25:46.031Z,1.03
2019-05-16T04:29:51.066Z,1.10
2019-05-16T04:33:52.084Z,1.73
2019-05-16T04:37:54.237Z,1.17
2019-05-16T04:41:56.221Z,1.20
2019-05-16T04:46:01.359Z,1.30
2019-05-16T04:50:06.460Z,1.03
2019-05-16T04:54:11.325Z,1.20
2019-05-16T04:58:13.177Z,1.50
2019-05-16T05:02:15.562Z,1.50
2019-05-16T05:06:20.615Z,1.23
2019-05-16T05:10:21.500Z,1.00
2019-05-16T05:14:23.702Z,1.10
2019-05-16T05:18:25.821Z,1.20
2019-05-16T05:22:30.309Z,1.50
2019-05-16T05:26:31.729Z,1.50
2019-05-16T05:30:33.727Z,1.10
2019-05-16T05:34:35.842Z,1.50
2019-05-16T05:38:40.261Z,1.43
2019-05-16T05:42:42.052Z,1.87
2019-05-16T05:46:44.082Z,2.27
2019-05-16T05:50:46.175Z,1.27
2019-05-16T05:54:50.297Z,1.10
2019-05-16T05:58:53.075Z,1.40
2019-05-16T06:02:55.151Z,1.50
2019-05-16T06:06:57.402Z,1.20
2019-05-16T06:11:00.798Z,1.30
2019-05-16T06:15:07.828Z,1.17
2019-05-16T06:19:06.854Z,0.77
2019-05-16T06:23:10.621Z,0.67
2019-05-16T06:27:12.829Z,0.87
2019-05-16T06:31:14.730Z,0.60
2019-05-16T06:35:16.840Z,0.70
2019-05-16T06:39:19.901Z,0.57
2019-05-16T06:43:22.062Z,0.67
2019-05-16T06:47:24.283Z,0.67
2019-05-16T06:51:26.413Z,0.63
2019-05-16T06:55:29.621Z,0.73
2019-05-16T06:59:31.840Z,0.40
2019-05-16T07:03:34.033Z,0.70
2019-05-16T07:07:36.061Z,0.70
2019-05-16T07:11:39.769Z,0.73
2019-05-16T07:15:41.936Z,0.63
2019-05-16T07:19:44.066Z,0.67
2019-05-16T07:23:46.607Z,0.93
2019-05-16T07:27:51.094Z,0.60
2019-05-16T07:31:52.559Z,0.70
2019-05-16T07:35:54.616Z,0.80
2019-05-16T07:39:56.578Z,0.80
2019-05-16T07:44:00.985Z,0.80
2019-05-16T07:48:02.565Z,0.70
2019-05-16T07:52:04.736Z,0.90
2019-05-16T07:56:06.456Z,0.83
2019-05-16T08:00:09.749Z,0.80
2019-05-16T08:04:11.688Z,0.80
2019-05-16T08:08:13.768Z,0.70
2019-05-16T08:12:15.926Z,1.00
2019-05-16T08:16:20.789Z,0.73
2019-05-16T08:20:23.322Z,0.60
2019-05-16T08:24:25.349Z,0.70
2019-05-16T08:28:30.560Z,1.00
2019-05-16T08:32:31.603Z,0.93
2019-05-16T08:36:33.634Z,0.80
2019-05-16T08:41:01.006Z,0.90
2019-05-16T08:44:41.853Z,0.70
2019-05-16T08:48:46.757Z,0.77
2019-05-16T08:52:52.893Z,0.60
2019-05-16T08:56:55.735Z,0.80
2019-05-16T09:01:01.920Z,0.80
2019-05-16T09:05:04.996Z,0.87
2019-05-16T09:09:26.629Z,0.80
2019-05-16T09:13:10.682Z,0.80
2019-05-16T09:17:12.925Z,0.70
2019-05-16T09:21:17.981Z,0.60
2019-05-16T09:25:18.836Z,0.80
2019-05-16T09:29:20.815Z,0.70
2019-05-16T09:33:26.754Z,0.63
2019-05-16T09:37:28.361Z,0.90
2019-05-16T09:41:46.243Z,0.77
2019-05-16T09:45:37.798Z,0.80
2019-05-16T09:49:39.440Z,0.60
2019-05-16T09:53:41.610Z,0.63
2019-05-16T09:57:43.724Z,0.87
2019-05-16T10:01:47.717Z,0.50
2019-05-16T10:05:49.612Z,0.60
2019-05-16T10:09:51.422Z,0.70
2019-05-16T10:13:53.543Z,0.60
2019-05-16T10:17:57.507Z,0.60
2019-05-16T10:22:00.307Z,0.60
2019-05-16T10:26:03.546Z,0.60
2019-05-16T10:30:08.654Z,0.73
2019-05-16T10:34:11.032Z,0.40
2019-05-16T10:38:13.177Z,0.40
2019-05-16T10:42:27.232Z,0.73
2019-05-16T10:46:18.738Z,0.80
2019-05-16T10:50:21.304Z,0.80
2019-05-16T10:54:23.562Z,0.60
2019-05-16T10:58:36.504Z,0.60
2019-05-16T11:02:29.322Z,0.73
2019-05-16T11:06:31.659Z,0.80
2019-05-16T11:10:37.136Z,0.60
2019-05-16T11:14:38.765Z,0.60
2019-05-16T11:18:40.605Z,0.60
2019-05-16T11:22:42.469Z,0.90
2019-05-16T11:26:44.565Z,0.50
2019-05-16T11:30:47.625Z,0.70
2019-05-16T11:34:49.849Z,0.60
2019-05-16T11:38:51.938Z,0.60
2019-05-16T11:43:06.514Z,0.73
2019-05-16T11:46:58.592Z,0.70
2019-05-16T11:51:00.697Z,0.70
2019-05-16T11:55:02.809Z,0.60
2019-05-16T11:59:07.633Z,0.83
2019-05-16T12:03:08.737Z,0.50
2019-05-16T12:07:10.746Z,0.60
2019-05-16T12:11:12.729Z,0.77
2019-05-16T12:15:19.722Z,0.80
2019-05-16T12:19:19.230Z,0.83
2019-05-16T12:23:22.813Z,0.90
2019-05-16T12:27:32.974Z,0.90
2019-05-16T12:31:32.492Z,0.80
2019-05-16T12:35:33.126Z,0.77
2019-05-16T12:39:37.647Z,0.80
2019-05-16T12:43:48.993Z,0.70
2019-05-16T12:47:47.049Z,0.70
2019-05-16T12:51:48.459Z,0.83
2019-05-16T12:55:50.583Z,0.77
2019-05-16T12:59:52.802Z,0.87
2019-05-16T13:03:54.989Z,0.60
2019-05-16T13:07:57.083Z,0.77
2019-05-16T13:11:59.133Z,0.70
2019-05-16T13:16:01.249Z,1.00
2019-05-16T13:20:03.351Z,0.60
2019-05-16T13:24:06.927Z,0.70
2019-05-16T13:28:09.165Z,0.60
2019-05-16T13:32:11.391Z,1.23
2019-05-16T13:36:13.527Z,0.60
2019-05-16T13:40:17.105Z,0.70
2019-05-16T13:44:22.995Z,0.80
2019-05-16T13:48:23.073Z,0.67
2019-05-16T13:52:28.227Z,1.00
2019-05-16T13:56:29.153Z,1.10
2019-05-16T14:00:31.210Z,0.83
2019-05-16T14:04:33.265Z,1.07
2019-05-16T14:08:37.351Z,0.93
2019-05-16T14:12:39.220Z,0.67
2019-05-16T14:16:41.492Z,1.00
2019-05-16T14:20:46.466Z,0.70
2019-05-16T14:24:48.381Z,0.80
2019-05-16T14:28:50.701Z,0.90
2019-05-16T14:32:52.888Z,0.80
2019-05-16T14:36:57.714Z,0.83
2019-05-16T14:40:58.728Z,0.87
2019-05-16T14:45:10.741Z,0.75
2019-05-16T14:49:07.666Z,0.80
2019-05-16T14:53:09.996Z,1.00
2019-05-16T14:57:12.083Z,1.00
2019-05-16T15:01:14.218Z,1.17
2019-05-16T15:05:16.428Z,0.80
2019-05-16T15:09:18.380Z,0.90
2019-05-16T15:13:20.135Z,1.10
2019-05-16T15:17:21.942Z,1.20
2019-05-16T15:21:23.869Z,1.00
2019-05-16T15:25:26.638Z,1.00
2019-05-16T15:29:28.506Z,0.90
2019-05-16T15:33:30.299Z,1.30
2019-05-16T15:37:32.062Z,0.90
2019-05-16T15:41:36.289Z,0.90
2019-05-16T15:45:43.461Z,1.00
2019-05-16T15:49:47.741Z,1.10
2019-05-16T15:53:50.355Z,0.70
2019-05-16T15:57:52.472Z,0.60
2019-05-16T16:01:54.558Z,0.90
2019-05-16T16:05:56.828Z,0.73
2019-05-16T16:09:58.972Z,0.90
2019-05-16T16:14:01.265Z,0.70
2019-05-16T16:18:03.556Z,0.97
2019-05-16T16:22:07.690Z,0.67
2019-05-16T16:26:10.689Z,0.70
2019-05-16T16:30:14.092Z,0.87
2019-05-16T16:34:17.559Z,0.70
2019-05-16T16:38:24.121Z,0.70
2019-05-16T16:42:27.249Z,1.10
2019-05-16T16:46:34.066Z,0.60
2019-05-16T16:50:39.531Z,1.00
2019-05-16T16:54:44.635Z,1.07
2019-05-16T16:58:46.747Z,0.80
2019-05-16T17:03:02.117Z,0.50
2019-05-16T17:06:53.418Z,0.63
2019-05-16T17:10:57.298Z,0.80
2019-05-16T17:14:58.662Z,0.60
2019-05-16T17:19:00.504Z,0.57
2019-05-16T17:23:02.257Z,0.90
2019-05-16T17:27:07.684Z,0.73
2019-05-16T17:31:08.203Z,0.77
2019-05-16T17:35:10.939Z,0.80
2019-05-16T17:39:12.716Z,0.80
2019-05-16T17:43:16.441Z,0.70
2019-05-16T17:47:18.499Z,0.77
2019-05-16T17:51:42.566Z,0.70
2019-05-16T17:55:47.030Z,0.77
2019-05-16T17:59:49.181Z,0.83
2019-05-16T18:03:50.921Z,0.97
2019-05-16T18:07:52.757Z,1.20
2019-05-16T18:11:56.993Z,0.70
2019-05-16T18:15:58.674Z,1.03
2019-05-16T18:20:00.810Z,0.60
2019-05-16T18:24:03.365Z,0.80
2019-05-16T18:28:07.778Z,1.00
2019-05-16T18:32:09.448Z,0.63
2019-05-16T18:36:12.511Z,0.80
2019-05-16T18:40:16.611Z,0.80
2019-05-16T18:44:19.565Z,0.90
2019-05-16T18:48:22.050Z,0.80
2019-05-16T18:52:24.205Z,0.80
2019-05-16T18:56:27.165Z,0.70
2019-05-16T19:00:29.096Z,1.03
2019-05-16T19:04:31.274Z,0.90
2019-05-16T19:08:33.282Z,0.90
2019-05-16T19:12:37.170Z,0.90
2019-05-16T19:16:38.782Z,0.80
2019-05-16T19:20:46.006Z,0.77
2019-05-16T19:24:47.784Z,1.13
2019-05-16T19:28:49.606Z,0.97
2019-05-16T19:32:51.532Z,0.70
2019-05-16T19:36:53.317Z,0.80
2019-05-16T19:40:57.529Z,0.90
2019-05-16T19:44:59.801Z,0.90
2019-05-16T19:49:01.552Z,0.93
2019-05-16T19:53:07.331Z,1.00
2019-05-16T19:57:08.526Z,0.80
2019-05-16T20:01:10.316Z,0.87
2019-05-16T20:05:13.289Z,0.80
2019-05-16T20:09:16.592Z,0.90
2019-05-16T20:13:18.483Z,0.90
2019-05-16T20:17:20.267Z,1.10
2019-05-16T20:21:22.117Z,0.90
2019-05-16T20:25:23.936Z,1.13
2019-05-16T20:29:27.338Z,1.10
2019-05-16T20:33:29.265Z,1.10
2019-05-16T20:37:31.025Z,1.10
2019-05-16T20:41:32.820Z,1.00
2019-05-16T20:45:36.169Z,1.00
2019-05-16T20:49:38.067Z,1.20
2019-05-16T20:53:40.069Z,1.23
2019-05-16T20:57:41.865Z,1.10
2019-05-16T21:01:46.497Z,0.90
2019-05-16T21:05:48.325Z,1.00
2019-05-16T21:09:51.107Z,1.07
2019-05-16T21:13:52.864Z,1.30
2019-05-16T21:17:56.714Z,1.13
2019-05-16T21:21:58.608Z,1.20
2019-05-16T21:26:00.718Z,1.60
2019-05-16T21:30:02.907Z,1.10
2019-05-16T21:34:07.054Z,0.83
2019-05-16T21:38:09.085Z,1.13
2019-05-16T21:42:11.272Z,1.00
2019-05-16T21:46:13.482Z,1.07
2019-05-16T21:50:16.330Z,1.10
2019-05-16T21:54:20.092Z,1.27
2019-05-16T21:58:22.033Z,1.20
2019-05-16T22:02:26.397Z,1.07
2019-05-16T22:06:29.338Z,1.87
2019-05-16T22:10:31.626Z,1.17
2019-05-16T22:14:40.823Z,1.40
2019-05-16T22:18:42.978Z,1.00
2019-05-16T22:22:46.910Z,0.80
2019-05-16T22:26:48.789Z,1.13
2019-05-16T22:30:51.135Z,1.20
2019-05-16T22:34:53.265Z,1.30
2019-05-16T22:38:56.804Z,1.17
2019-05-16T22:42:59.177Z,1.10
2019-05-16T22:47:01.173Z,1.33
2019-05-16T22:51:03.196Z,1.20
2019-05-16T22:55:07.465Z,1.30
2019-05-16T22:59:09.959Z,1.30
2019-05-16T23:03:12.137Z,1.10
2019-05-16T23:07:16.418Z,1.30
2019-05-16T23:11:17.975Z,1.07
2019-05-16T23:15:20.575Z,1.20
2019-05-16T23:19:22.850Z,1.30
2019-05-16T23:23:26.583Z,1.40
2019-05-16T23:27:28.809Z,1.27
2019-05-16T23:31:31.014Z,1.20
2019-05-16T23:35:33.378Z,1.13
2019-05-16T23:39:37.761Z,1.20
2019-05-16T23:43:39.395Z,1.27
2019-05-16T23:47:41.502Z,1.40
2019-05-16T23:51:43.637Z,1.40
2019-05-16T23:55:47.102Z,1.50
2019-05-16T23:59:50.352Z,1.60
